sensor_id;sensor_type;location;lat;lon;timestamp;temperature;humidity
29093;DHT22;16167;48.768;14.984;2022-11-14T00:01:19;5.70;92.10
29093;DHT22;16167;48.768;14.984;2022-11-14T00:03:48;5.70;91.90
29093;DHT22;16167;48.768;14.984;2022-11-14T00:06:19;5.70;92.30
29093;DHT22;16167;48.768;14.984;2022-11-14T00:08:47;5.70;91.90
29093;DHT22;16167;48.768;14.984;2022-11-14T00:11:15;5.70;92.10
29093;DHT22;16167;48.768;14.984;2022-11-14T00:13:43;5.70;91.10
29093;DHT22;16167;48.768;14.984;2022-11-14T00:16:12;5.80;90.00
29093;DHT22;16167;48.768;14.984;2022-11-14T00:18:40;5.80;88.90
29093;DHT22;16167;48.768;14.984;2022-11-14T00:21:08;5.70;89.20
29093;DHT22;16167;48.768;14.984;2022-11-14T00:23:37;5.80;88.70
29093;DHT22;16167;48.768;14.984;2022-11-14T00:26:06;5.80;89.90
29093;DHT22;16167;48.768;14.984;2022-11-14T00:28:34;5.70;87.60
29093;DHT22;16167;48.768;14.984;2022-11-14T00:31:02;5.80;85.10
29093;DHT22;16167;48.768;14.984;2022-11-14T00:33:30;5.80;82.30
29093;DHT22;16167;48.768;14.984;2022-11-14T00:35:58;5.80;80.70
29093;DHT22;16167;48.768;14.984;2022-11-14T00:38:26;5.80;79.80
29093;DHT22;16167;48.768;14.984;2022-11-14T00:40:56;5.80;81.00
29093;DHT22;16167;48.768;14.984;2022-11-14T00:43:24;5.80;80.60
29093;DHT22;16167;48.768;14.984;2022-11-14T00:45:52;5.70;83.20
29093;DHT22;16167;48.768;14.984;2022-11-14T00:48:20;5.70;83.00
29093;DHT22;16167;48.768;14.984;2022-11-14T00:50:48;5.70;85.40
29093;DHT22;16167;48.768;14.984;2022-11-14T00:53:16;5.70;84.40
29093;DHT22;16167;48.768;14.984;2022-11-14T00:55:44;5.70;83.80
29093;DHT22;16167;48.768;14.984;2022-11-14T00:58:14;5.70;84.40
29093;DHT22;16167;48.768;14.984;2022-11-14T01:00:42;5.70;85.40
29093;DHT22;16167;48.768;14.984;2022-11-14T01:03:10;5.70;86.10
29093;DHT22;16167;48.768;14.984;2022-11-14T01:05:42;5.60;87.20
29093;DHT22;16167;48.768;14.984;2022-11-14T01:08:12;5.60;87.40
29093;DHT22;16167;48.768;14.984;2022-11-14T01:10:41;5.60;86.20
29093;DHT22;16167;48.768;14.984;2022-11-14T01:13:11;5.70;85.60
29093;DHT22;16167;48.768;14.984;2022-11-14T01:15:43;5.60;89.30
29093;DHT22;16167;48.768;14.984;2022-11-14T01:18:14;5.50;90.30
29093;DHT22;16167;48.768;14.984;2022-11-14T01:20:44;5.50;90.40
29093;DHT22;16167;48.768;14.984;2022-11-14T01:23:14;5.60;90.90
29093;DHT22;16167;48.768;14.984;2022-11-14T01:25:42;5.50;90.80
29093;DHT22;16167;48.768;14.984;2022-11-14T01:28:12;5.50;90.90
29093;DHT22;16167;48.768;14.984;2022-11-14T01:30:42;5.50;91.30
29093;DHT22;16167;48.768;14.984;2022-11-14T01:33:11;5.50;91.60
29093;DHT22;16167;48.768;14.984;2022-11-14T01:35:39;5.60;91.10
29093;DHT22;16167;48.768;14.984;2022-11-14T01:38:11;5.60;90.80
29093;DHT22;16167;48.768;14.984;2022-11-14T01:40:41;5.60;89.70
29093;DHT22;16167;48.768;14.984;2022-11-14T01:43:27;5.60;89.60
29093;DHT22;16167;48.768;14.984;2022-11-14T01:45:59;5.60;89.60
29093;DHT22;16167;48.768;14.984;2022-11-14T01:48:34;5.60;90.20
29093;DHT22;16167;48.768;14.984;2022-11-14T01:51:11;5.60;90.30
29093;DHT22;16167;48.768;14.984;2022-11-14T01:53:42;5.60;90.10
29093;DHT22;16167;48.768;14.984;2022-11-14T01:56:14;5.60;91.40
29093;DHT22;16167;48.768;14.984;2022-11-14T01:58:45;5.50;91.40
29093;DHT22;16167;48.768;14.984;2022-11-14T02:01:15;5.50;92.70
29093;DHT22;16167;48.768;14.984;2022-11-14T02:03:45;5.50;92.10
29093;DHT22;16167;48.768;14.984;2022-11-14T02:06:17;5.50;92.00
29093;DHT22;16167;48.768;14.984;2022-11-14T02:08:47;5.50;92.40
29093;DHT22;16167;48.768;14.984;2022-11-14T02:11:16;5.50;92.50
29093;DHT22;16167;48.768;14.984;2022-11-14T02:13:44;5.50;91.70
29093;DHT22;16167;48.768;14.984;2022-11-14T02:16:14;5.50;91.90
29093;DHT22;16167;48.768;14.984;2022-11-14T02:18:43;5.50;92.20
29093;DHT22;16167;48.768;14.984;2022-11-14T02:21:13;5.50;92.70
29093;DHT22;16167;48.768;14.984;2022-11-14T02:23:41;5.50;93.20
29093;DHT22;16167;48.768;14.984;2022-11-14T02:26:09;5.50;93.10
29093;DHT22;16167;48.768;14.984;2022-11-14T02:28:37;5.50;93.10
29093;DHT22;16167;48.768;14.984;2022-11-14T02:31:05;5.50;93.70
29093;DHT22;16167;48.768;14.984;2022-11-14T02:33:33;5.50;94.00
29093;DHT22;16167;48.768;14.984;2022-11-14T02:36:01;5.50;93.50
29093;DHT22;16167;48.768;14.984;2022-11-14T02:38:31;5.50;93.50
29093;DHT22;16167;48.768;14.984;2022-11-14T02:40:59;5.50;93.90
29093;DHT22;16167;48.768;14.984;2022-11-14T02:43:27;5.50;94.10
29093;DHT22;16167;48.768;14.984;2022-11-14T02:45:55;5.50;94.20
29093;DHT22;16167;48.768;14.984;2022-11-14T02:48:31;5.50;93.30
29093;DHT22;16167;48.768;14.984;2022-11-14T02:50:59;5.50;93.20
29093;DHT22;16167;48.768;14.984;2022-11-14T02:53:27;5.50;93.00
29093;DHT22;16167;48.768;14.984;2022-11-14T02:55:56;5.50;93.30
29093;DHT22;16167;48.768;14.984;2022-11-14T02:58:24;5.40;93.80
29093;DHT22;16167;48.768;14.984;2022-11-14T03:00:53;5.50;94.80
29093;DHT22;16167;48.768;14.984;2022-11-14T03:03:41;5.40;94.70
29093;DHT22;16167;48.768;14.984;2022-11-14T03:06:09;5.50;93.70
29093;DHT22;16167;48.768;14.984;2022-11-14T03:08:37;5.50;93.50
29093;DHT22;16167;48.768;14.984;2022-11-14T03:11:07;5.50;94.40
29093;DHT22;16167;48.768;14.984;2022-11-14T03:13:36;5.50;93.80
29093;DHT22;16167;48.768;14.984;2022-11-14T03:16:04;5.50;94.40
29093;DHT22;16167;48.768;14.984;2022-11-14T03:18:34;5.50;93.70
29093;DHT22;16167;48.768;14.984;2022-11-14T03:21:06;5.50;94.80
29093;DHT22;16167;48.768;14.984;2022-11-14T03:23:34;5.50;95.30
29093;DHT22;16167;48.768;14.984;2022-11-14T03:26:04;5.50;94.90
29093;DHT22;16167;48.768;14.984;2022-11-14T03:28:34;5.50;95.00
29093;DHT22;16167;48.768;14.984;2022-11-14T03:31:02;5.50;95.10
29093;DHT22;16167;48.768;14.984;2022-11-14T03:33:31;5.50;95.50
29093;DHT22;16167;48.768;14.984;2022-11-14T03:36:00;5.50;95.10
29093;DHT22;16167;48.768;14.984;2022-11-14T03:38:28;5.50;96.20
29093;DHT22;16167;48.768;14.984;2022-11-14T03:40:58;5.50;95.40
29093;DHT22;16167;48.768;14.984;2022-11-14T03:43:30;5.40;95.40
29093;DHT22;16167;48.768;14.984;2022-11-14T03:46:00;5.40;96.60
29093;DHT22;16167;48.768;14.984;2022-11-14T03:48:30;5.40;97.50
29093;DHT22;16167;48.768;14.984;2022-11-14T03:50:58;5.40;97.70
29093;DHT22;16167;48.768;14.984;2022-11-14T03:53:26;5.40;97.50
29093;DHT22;16167;48.768;14.984;2022-11-14T03:55:55;5.40;97.30
29093;DHT22;16167;48.768;14.984;2022-11-14T03:58:23;5.50;97.50
29093;DHT22;16167;48.768;14.984;2022-11-14T04:00:51;5.50;96.70
29093;DHT22;16167;48.768;14.984;2022-11-14T04:03:20;5.50;97.20
29093;DHT22;16167;48.768;14.984;2022-11-14T04:05:48;5.50;97.00
29093;DHT22;16167;48.768;14.984;2022-11-14T04:08:17;5.50;96.70
29093;DHT22;16167;48.768;14.984;2022-11-14T04:10:46;5.50;96.60
29093;DHT22;16167;48.768;14.984;2022-11-14T04:13:14;5.50;96.00
29093;DHT22;16167;48.768;14.984;2022-11-14T04:15:42;5.60;94.30
29093;DHT22;16167;48.768;14.984;2022-11-14T04:18:10;5.60;94.30
29093;DHT22;16167;48.768;14.984;2022-11-14T04:20:40;5.60;94.20
29093;DHT22;16167;48.768;14.984;2022-11-14T04:23:08;5.60;94.10
29093;DHT22;16167;48.768;14.984;2022-11-14T04:25:36;5.50;94.70
29093;DHT22;16167;48.768;14.984;2022-11-14T04:28:04;5.50;94.80
29093;DHT22;16167;48.768;14.984;2022-11-14T04:30:32;5.50;95.40
29093;DHT22;16167;48.768;14.984;2022-11-14T04:33:00;5.40;96.80
29093;DHT22;16167;48.768;14.984;2022-11-14T04:35:28;5.40;96.50
29093;DHT22;16167;48.768;14.984;2022-11-14T04:37:58;5.50;96.10
29093;DHT22;16167;48.768;14.984;2022-11-14T04:40:26;5.50;96.10
29093;DHT22;16167;48.768;14.984;2022-11-14T04:42:54;5.40;96.40
29093;DHT22;16167;48.768;14.984;2022-11-14T04:45:22;5.40;96.70
29093;DHT22;16167;48.768;14.984;2022-11-14T04:47:50;5.40;96.00
29093;DHT22;16167;48.768;14.984;2022-11-14T04:50:18;5.50;94.70
29093;DHT22;16167;48.768;14.984;2022-11-14T04:52:49;5.50;94.50
29093;DHT22;16167;48.768;14.984;2022-11-14T04:55:19;5.50;94.90
29093;DHT22;16167;48.768;14.984;2022-11-14T04:57:47;5.50;95.60
29093;DHT22;16167;48.768;14.984;2022-11-14T05:00:20;5.40;95.50
29093;DHT22;16167;48.768;14.984;2022-11-14T05:02:48;5.50;95.00
29093;DHT22;16167;48.768;14.984;2022-11-14T05:05:16;5.50;94.80
29093;DHT22;16167;48.768;14.984;2022-11-14T05:07:44;5.50;95.60
29093;DHT22;16167;48.768;14.984;2022-11-14T05:10:12;5.50;96.20
29093;DHT22;16167;48.768;14.984;2022-11-14T05:12:42;5.50;95.90
29093;DHT22;16167;48.768;14.984;2022-11-14T05:15:10;5.50;95.60
29093;DHT22;16167;48.768;14.984;2022-11-14T05:17:38;5.40;96.10
29093;DHT22;16167;48.768;14.984;2022-11-14T05:20:07;5.50;96.00
29093;DHT22;16167;48.768;14.984;2022-11-14T05:22:35;5.50;96.40
29093;DHT22;16167;48.768;14.984;2022-11-14T05:25:03;5.50;96.50
29093;DHT22;16167;48.768;14.984;2022-11-14T05:27:31;5.40;96.00
29093;DHT22;16167;48.768;14.984;2022-11-14T05:30:01;5.40;96.30
29093;DHT22;16167;48.768;14.984;2022-11-14T05:32:29;5.40;95.50
29093;DHT22;16167;48.768;14.984;2022-11-14T05:34:57;5.40;94.70
29093;DHT22;16167;48.768;14.984;2022-11-14T05:37:25;5.50;93.60
29093;DHT22;16167;48.768;14.984;2022-11-14T05:39:53;5.50;93.00
29093;DHT22;16167;48.768;14.984;2022-11-14T05:42:21;5.50;94.60
29093;DHT22;16167;48.768;14.984;2022-11-14T05:44:49;5.50;95.30
29093;DHT22;16167;48.768;14.984;2022-11-14T05:47:18;5.40;95.30
29093;DHT22;16167;48.768;14.984;2022-11-14T05:49:46;5.40;96.10
29093;DHT22;16167;48.768;14.984;2022-11-14T05:52:14;5.50;95.00
29093;DHT22;16167;48.768;14.984;2022-11-14T05:54:42;5.50;94.90
29093;DHT22;16167;48.768;14.984;2022-11-14T05:57:10;5.40;95.60
29093;DHT22;16167;48.768;14.984;2022-11-14T05:59:38;5.40;96.40
29093;DHT22;16167;48.768;14.984;2022-11-14T06:02:06;5.40;96.80
29093;DHT22;16167;48.768;14.984;2022-11-14T06:04:36;5.40;96.70
29093;DHT22;16167;48.768;14.984;2022-11-14T06:07:04;5.40;96.70
29093;DHT22;16167;48.768;14.984;2022-11-14T06:09:32;5.40;96.20
29093;DHT22;16167;48.768;14.984;2022-11-14T06:12:00;5.50;95.40
29093;DHT22;16167;48.768;14.984;2022-11-14T06:14:31;5.40;95.20
29093;DHT22;16167;48.768;14.984;2022-11-14T06:16:59;5.50;95.30
29093;DHT22;16167;48.768;14.984;2022-11-14T06:19:27;5.50;95.00
29093;DHT22;16167;48.768;14.984;2022-11-14T06:21:57;5.50;95.10
29093;DHT22;16167;48.768;14.984;2022-11-14T06:24:25;5.50;95.30
29093;DHT22;16167;48.768;14.984;2022-11-14T06:26:53;5.50;95.40
29093;DHT22;16167;48.768;14.984;2022-11-14T06:29:21;5.50;96.00
29093;DHT22;16167;48.768;14.984;2022-11-14T06:31:49;5.50;96.30
29093;DHT22;16167;48.768;14.984;2022-11-14T06:34:17;5.50;95.70
29093;DHT22;16167;48.768;14.984;2022-11-14T06:36:45;5.50;94.90
29093;DHT22;16167;48.768;14.984;2022-11-14T06:39:14;5.50;95.10
29093;DHT22;16167;48.768;14.984;2022-11-14T06:41:42;5.50;94.80
29093;DHT22;16167;48.768;14.984;2022-11-14T06:44:10;5.60;94.50
29093;DHT22;16167;48.768;14.984;2022-11-14T06:46:40;5.50;94.50
29093;DHT22;16167;48.768;14.984;2022-11-14T06:49:08;5.50;95.30
29093;DHT22;16167;48.768;14.984;2022-11-14T06:51:36;5.50;95.50
29093;DHT22;16167;48.768;14.984;2022-11-14T06:54:04;5.60;95.70
29093;DHT22;16167;48.768;14.984;2022-11-14T06:56:34;5.60;94.80
29093;DHT22;16167;48.768;14.984;2022-11-14T06:59:02;5.60;94.60
29093;DHT22;16167;48.768;14.984;2022-11-14T07:01:30;5.60;95.20
29093;DHT22;16167;48.768;14.984;2022-11-14T07:03:58;5.70;95.10
29093;DHT22;16167;48.768;14.984;2022-11-14T07:06:28;5.70;95.30
29093;DHT22;16167;48.768;14.984;2022-11-14T07:08:57;5.70;95.40
29093;DHT22;16167;48.768;14.984;2022-11-14T07:11:26;5.70;95.00
29093;DHT22;16167;48.768;14.984;2022-11-14T07:13:58;5.70;94.70
29093;DHT22;16167;48.768;14.984;2022-11-14T07:16:28;5.80;94.80
29093;DHT22;16167;48.768;14.984;2022-11-14T07:18:57;5.80;94.60
29093;DHT22;16167;48.768;14.984;2022-11-14T07:21:27;5.80;92.80
29093;DHT22;16167;48.768;14.984;2022-11-14T07:23:55;5.90;93.20
29093;DHT22;16167;48.768;14.984;2022-11-14T07:26:23;6.00;92.40
29093;DHT22;16167;48.768;14.984;2022-11-14T07:28:51;6.00;91.20
29093;DHT22;16167;48.768;14.984;2022-11-14T07:31:29;6.00;92.10
29093;DHT22;16167;48.768;14.984;2022-11-14T07:33:57;6.00;88.50
29093;DHT22;16167;48.768;14.984;2022-11-14T07:36:25;6.10;87.70
29093;DHT22;16167;48.768;14.984;2022-11-14T07:38:53;6.10;86.00
29093;DHT22;16167;48.768;14.984;2022-11-14T07:41:21;6.10;85.20
29093;DHT22;16167;48.768;14.984;2022-11-14T07:43:49;6.20;84.60
29093;DHT22;16167;48.768;14.984;2022-11-14T07:46:17;6.20;78.40
29093;DHT22;16167;48.768;14.984;2022-11-14T07:48:47;6.30;74.40
29093;DHT22;16167;48.768;14.984;2022-11-14T07:51:16;6.40;66.60
29093;DHT22;16167;48.768;14.984;2022-11-14T07:53:45;6.40;70.90
29093;DHT22;16167;48.768;14.984;2022-11-14T07:56:13;6.50;67.80
29093;DHT22;16167;48.768;14.984;2022-11-14T07:58:42;6.60;65.40
29093;DHT22;16167;48.768;14.984;2022-11-14T08:01:11;6.80;58.20
29093;DHT22;16167;48.768;14.984;2022-11-14T08:03:40;6.90;59.50
29093;DHT22;16167;48.768;14.984;2022-11-14T08:06:14;7.00;51.70
29093;DHT22;16167;48.768;14.984;2022-11-14T08:08:42;7.10;47.80
29093;DHT22;16167;48.768;14.984;2022-11-14T08:11:10;7.10;43.60
29093;DHT22;16167;48.768;14.984;2022-11-14T08:13:45;7.30;39.60
29093;DHT22;16167;48.768;14.984;2022-11-14T08:16:13;7.30;35.00
29093;DHT22;16167;48.768;14.984;2022-11-14T08:18:41;7.40;30.00
29093;DHT22;16167;48.768;14.984;2022-11-14T08:21:09;7.50;24.50
29093;DHT22;16167;48.768;14.984;2022-11-14T08:23:38;7.60;21.80
29093;DHT22;16167;48.768;14.984;2022-11-14T08:26:06;7.60;21.20
29093;DHT22;16167;48.768;14.984;2022-11-14T08:28:34;7.70;17.10
29093;DHT22;16167;48.768;14.984;2022-11-14T08:31:03;7.70;15.50
29093;DHT22;16167;48.768;14.984;2022-11-14T08:33:31;7.70;14.40
29093;DHT22;16167;48.768;14.984;2022-11-14T08:36:00;7.80;14.50
29093;DHT22;16167;48.768;14.984;2022-11-14T08:38:29;7.80;15.90
29093;DHT22;16167;48.768;14.984;2022-11-14T08:41:00;7.90;13.60
29093;DHT22;16167;48.768;14.984;2022-11-14T08:43:28;8.00;15.90
29093;DHT22;16167;48.768;14.984;2022-11-14T08:45:57;8.10;12.20
29093;DHT22;16167;48.768;14.984;2022-11-14T08:48:28;8.10;9.60
29093;DHT22;16167;48.768;14.984;2022-11-14T08:50:57;8.30;7.10
29093;DHT22;16167;48.768;14.984;2022-11-14T08:53:25;8.30;4.50
29093;DHT22;16167;48.768;14.984;2022-11-14T08:55:53;8.30;5.90
29093;DHT22;16167;48.768;14.984;2022-11-14T08:58:22;8.40;2.90
29093;DHT22;16167;48.768;14.984;2022-11-14T09:00:50;8.50;1.00
29093;DHT22;16167;48.768;14.984;2022-11-14T09:03:18;8.50;3.90
29093;DHT22;16167;48.768;14.984;2022-11-14T09:05:50;8.50;1.00
29093;DHT22;16167;48.768;14.984;2022-11-14T09:08:18;8.50;1.00
29093;DHT22;16167;48.768;14.984;2022-11-14T09:10:46;8.60;1.00
29093;DHT22;16167;48.768;14.984;2022-11-14T09:13:15;8.60;1.00
29093;DHT22;16167;48.768;14.984;2022-11-14T09:15:44;8.60;1.00
29093;DHT22;16167;48.768;14.984;2022-11-14T09:18:12;8.60;1.00
29093;DHT22;16167;48.768;14.984;2022-11-14T09:20:40;8.60;1.00
29093;DHT22;16167;48.768;14.984;2022-11-14T09:23:09;8.70;1.00
29093;DHT22;16167;48.768;14.984;2022-11-14T09:25:37;8.70;1.00
29093;DHT22;16167;48.768;14.984;2022-11-14T09:28:06;8.80;1.00
29093;DHT22;16167;48.768;14.984;2022-11-14T09:30:35;8.80;1.00
29093;DHT22;16167;48.768;14.984;2022-11-14T09:33:05;9.00;1.00
29093;DHT22;16167;48.768;14.984;2022-11-14T09:35:37;9.00;1.00
29093;DHT22;16167;48.768;14.984;2022-11-14T09:38:07;9.10;1.00
29093;DHT22;16167;48.768;14.984;2022-11-14T09:40:39;9.20;1.00
29093;DHT22;16167;48.768;14.984;2022-11-14T09:43:18;9.30;1.00
29093;DHT22;16167;48.768;14.984;2022-11-14T09:45:50;9.40;1.00
29093;DHT22;16167;48.768;14.984;2022-11-14T09:48:22;9.60;1.00
29093;DHT22;16167;48.768;14.984;2022-11-14T09:51:04;9.90;1.00
29093;DHT22;16167;48.768;14.984;2022-11-14T09:53:38;10.10;1.00
29093;DHT22;16167;48.768;14.984;2022-11-14T09:56:11;10.30;1.00
29093;DHT22;16167;48.768;14.984;2022-11-14T09:58:40;10.50;1.00
29093;DHT22;16167;48.768;14.984;2022-11-14T10:01:14;10.70;1.00
29093;DHT22;16167;48.768;14.984;2022-11-14T10:03:50;11.00;1.00
29093;DHT22;16167;48.768;14.984;2022-11-14T10:06:25;11.20;1.00
29093;DHT22;16167;48.768;14.984;2022-11-14T10:09:25;11.60;1.00
29093;DHT22;16167;48.768;14.984;2022-11-14T10:12:03;11.80;1.00
29093;DHT22;16167;48.768;14.984;2022-11-14T10:14:46;12.10;1.00
29093;DHT22;16167;48.768;14.984;2022-11-14T10:17:28;12.40;1.00
29093;DHT22;16167;48.768;14.984;2022-11-14T10:20:12;12.60;1.00
29093;DHT22;16167;48.768;14.984;2022-11-14T10:25:46;13.40;1.00
29093;DHT22;16167;48.768;14.984;2022-11-14T10:31:21;15.00;1.00
29093;DHT22;16167;48.768;14.984;2022-11-14T10:33:58;16.20;1.00
29093;DHT22;16167;48.768;14.984;2022-11-14T10:36:44;17.70;99.90
29093;DHT22;16167;48.768;14.984;2022-11-14T10:39:18;18.80;99.90
29093;DHT22;16167;48.768;14.984;2022-11-14T10:41:49;19.90;99.90
29093;DHT22;16167;48.768;14.984;2022-11-14T10:44:33;20.80;99.90
29093;DHT22;16167;48.768;14.984;2022-11-14T10:47:07;21.70;95.00
29093;DHT22;16167;48.768;14.984;2022-11-14T10:49:38;22.30;99.90
29093;DHT22;16167;48.768;14.984;2022-11-14T10:52:12;23.00;99.90
29093;DHT22;16167;48.768;14.984;2022-11-14T10:54:45;23.30;99.90
29093;DHT22;16167;48.768;14.984;2022-11-14T10:57:16;23.60;99.90
29093;DHT22;16167;48.768;14.984;2022-11-14T10:59:46;23.70;99.90
29093;DHT22;16167;48.768;14.984;2022-11-14T11:02:14;23.70;99.90
29093;DHT22;16167;48.768;14.984;2022-11-14T11:04:43;24.20;99.90
29093;DHT22;16167;48.768;14.984;2022-11-14T11:07:22;25.00;99.90
29093;DHT22;16167;48.768;14.984;2022-11-14T11:10:19;25.20;99.90
29093;DHT22;16167;48.768;14.984;2022-11-14T11:13:08;25.80;99.90
29093;DHT22;16167;48.768;14.984;2022-11-14T11:15:40;25.90;99.90
29093;DHT22;16167;48.768;14.984;2022-11-14T11:18:26;26.10;99.90
29093;DHT22;16167;48.768;14.984;2022-11-14T11:21:05;26.20;99.90
29093;DHT22;16167;48.768;14.984;2022-11-14T11:23:36;26.20;99.90
29093;DHT22;16167;48.768;14.984;2022-11-14T11:26:17;26.50;99.90
29093;DHT22;16167;48.768;14.984;2022-11-14T11:29:01;26.20;99.90
29093;DHT22;16167;48.768;14.984;2022-11-14T11:31:48;26.40;99.90
29093;DHT22;16167;48.768;14.984;2022-11-14T11:34:21;26.50;99.90
29093;DHT22;16167;48.768;14.984;2022-11-14T11:36:54;26.30;99.90
29093;DHT22;16167;48.768;14.984;2022-11-14T11:39:27;26.50;99.90
29093;DHT22;16167;48.768;14.984;2022-11-14T11:41:59;26.50;99.90
29093;DHT22;16167;48.768;14.984;2022-11-14T11:44:40;26.70;99.90
29093;DHT22;16167;48.768;14.984;2022-11-14T11:47:13;26.70;99.90
29093;DHT22;16167;48.768;14.984;2022-11-14T11:49:45;26.90;99.90
29093;DHT22;16167;48.768;14.984;2022-11-14T11:52:25;27.00;99.90
29093;DHT22;16167;48.768;14.984;2022-11-14T11:54:59;26.90;99.90
29093;DHT22;16167;48.768;14.984;2022-11-14T11:57:32;26.90;99.90
29093;DHT22;16167;48.768;14.984;2022-11-14T12:00:05;27.40;99.90
29093;DHT22;16167;48.768;14.984;2022-11-14T12:02:35;27.40;99.90
29093;DHT22;16167;48.768;14.984;2022-11-14T12:05:14;27.20;99.90
29093;DHT22;16167;48.768;14.984;2022-11-14T12:07:48;27.30;99.90
29093;DHT22;16167;48.768;14.984;2022-11-14T12:10:22;27.20;99.90
29093;DHT22;16167;48.768;14.984;2022-11-14T12:15:57;26.90;99.90
29093;DHT22;16167;48.768;14.984;2022-11-14T12:18:54;26.80;99.90
29093;DHT22;16167;48.768;14.984;2022-11-14T12:21:30;26.60;99.90
29093;DHT22;16167;48.768;14.984;2022-11-14T12:27:03;26.10;99.90
29093;DHT22;16167;48.768;14.984;2022-11-14T12:29:49;26.20;99.90
29093;DHT22;16167;48.768;14.984;2022-11-14T12:32:28;26.20;99.90
29093;DHT22;16167;48.768;14.984;2022-11-14T12:34:59;26.10;99.90
29093;DHT22;16167;48.768;14.984;2022-11-14T12:37:32;25.70;99.90
29093;DHT22;16167;48.768;14.984;2022-11-14T12:40:04;25.70;99.90
29093;DHT22;16167;48.768;14.984;2022-11-14T12:42:34;25.70;99.90
29093;DHT22;16167;48.768;14.984;2022-11-14T12:45:03;25.80;99.90
29093;DHT22;16167;48.768;14.984;2022-11-14T12:47:31;26.10;99.90
29093;DHT22;16167;48.768;14.984;2022-11-14T12:50:09;26.40;99.90
29093;DHT22;16167;48.768;14.984;2022-11-14T12:52:53;26.50;99.90
29093;DHT22;16167;48.768;14.984;2022-11-14T12:55:52;27.00;99.90
29093;DHT22;16167;48.768;14.984;2022-11-14T12:58:31;26.90;99.90
29093;DHT22;16167;48.768;14.984;2022-11-14T13:01:17;26.70;99.90
29093;DHT22;16167;48.768;14.984;2022-11-14T13:03:56;26.70;99.90
29093;DHT22;16167;48.768;14.984;2022-11-14T13:06:33;26.90;99.90
29093;DHT22;16167;48.768;14.984;2022-11-14T13:09:24;26.90;99.90
29093;DHT22;16167;48.768;14.984;2022-11-14T13:11:54;27.10;99.90
29093;DHT22;16167;48.768;14.984;2022-11-14T13:14:49;27.20;99.90
29093;DHT22;16167;48.768;14.984;2022-11-14T13:17:41;27.10;99.90
29093;DHT22;16167;48.768;14.984;2022-11-14T13:20:29;27.20;99.90
29093;DHT22;16167;48.768;14.984;2022-11-14T13:23:52;26.90;99.90
29093;DHT22;16167;48.768;14.984;2022-11-14T13:26:36;26.60;99.90
29093;DHT22;16167;48.768;14.984;2022-11-14T13:29:04;26.40;99.90
29093;DHT22;16167;48.768;14.984;2022-11-14T13:31:45;26.00;99.90
29093;DHT22;16167;48.768;14.984;2022-11-14T13:34:38;25.70;99.90
29093;DHT22;16167;48.768;14.984;2022-11-14T13:37:18;25.10;99.90
29093;DHT22;16167;48.768;14.984;2022-11-14T13:39:57;24.80;99.90
29093;DHT22;16167;48.768;14.984;2022-11-14T13:42:36;24.50;99.90
29093;DHT22;16167;48.768;14.984;2022-11-14T13:45:44;24.40;99.90
29093;DHT22;16167;48.768;14.984;2022-11-14T13:48:38;24.40;99.90
29093;DHT22;16167;48.768;14.984;2022-11-14T13:51:15;23.90;99.90
29093;DHT22;16167;48.768;14.984;2022-11-14T13:54:10;23.40;99.90
29093;DHT22;16167;48.768;14.984;2022-11-14T13:56:53;22.60;99.90
29093;DHT22;16167;48.768;14.984;2022-11-14T13:59:50;21.60;99.90
29093;DHT22;16167;48.768;14.984;2022-11-14T14:02:54;20.70;99.90
29093;DHT22;16167;48.768;14.984;2022-11-14T14:05:45;19.90;99.90
29093;DHT22;16167;48.768;14.984;2022-11-14T14:08:27;19.20;99.90
29093;DHT22;16167;48.768;14.984;2022-11-14T14:11:14;18.60;99.90
29093;DHT22;16167;48.768;14.984;2022-11-14T14:13:51;18.20;99.90
29093;DHT22;16167;48.768;14.984;2022-11-14T14:16:30;18.00;99.90
29093;DHT22;16167;48.768;14.984;2022-11-14T14:19:07;17.60;99.90
29093;DHT22;16167;48.768;14.984;2022-11-14T14:21:46;17.10;99.90
29093;DHT22;16167;48.768;14.984;2022-11-14T14:24:33;16.80;99.90
29093;DHT22;16167;48.768;14.984;2022-11-14T14:27:09;16.30;99.90
29093;DHT22;16167;48.768;14.984;2022-11-14T14:29:46;15.70;99.90
29093;DHT22;16167;48.768;14.984;2022-11-14T14:32:18;15.20;99.90
29093;DHT22;16167;48.768;14.984;2022-11-14T14:34:46;14.60;99.90
29093;DHT22;16167;48.768;14.984;2022-11-14T14:37:18;14.20;99.90
29093;DHT22;16167;48.768;14.984;2022-11-14T14:39:57;13.80;99.90
29093;DHT22;16167;48.768;14.984;2022-11-14T14:42:28;13.40;99.90
29093;DHT22;16167;48.768;14.984;2022-11-14T14:45:02;13.10;99.90
29093;DHT22;16167;48.768;14.984;2022-11-14T14:47:32;12.70;1.00
29093;DHT22;16167;48.768;14.984;2022-11-14T14:50:02;12.40;1.00
29093;DHT22;16167;48.768;14.984;2022-11-14T14:52:35;12.10;1.00
29093;DHT22;16167;48.768;14.984;2022-11-14T14:55:05;11.90;1.00
29093;DHT22;16167;48.768;14.984;2022-11-14T14:57:34;11.70;1.00
29093;DHT22;16167;48.768;14.984;2022-11-14T15:00:04;11.50;1.00
29093;DHT22;16167;48.768;14.984;2022-11-14T15:02:34;11.40;1.00
29093;DHT22;16167;48.768;14.984;2022-11-14T15:05:03;11.20;1.00
29093;DHT22;16167;48.768;14.984;2022-11-14T15:07:33;11.00;1.00
29093;DHT22;16167;48.768;14.984;2022-11-14T15:10:03;10.80;1.00
29093;DHT22;16167;48.768;14.984;2022-11-14T15:12:34;10.60;1.00
29093;DHT22;16167;48.768;14.984;2022-11-14T15:15:03;10.50;1.00
29093;DHT22;16167;48.768;14.984;2022-11-14T15:17:31;10.30;1.00
29093;DHT22;16167;48.768;14.984;2022-11-14T15:20:02;10.10;1.00
29093;DHT22;16167;48.768;14.984;2022-11-14T15:22:30;10.00;1.00
29093;DHT22;16167;48.768;14.984;2022-11-14T15:25:17;9.80;1.00
29093;DHT22;16167;48.768;14.984;2022-11-14T15:27:51;9.60;1.00
29093;DHT22;16167;48.768;14.984;2022-11-14T15:30:23;9.50;1.00
29093;DHT22;16167;48.768;14.984;2022-11-14T15:32:52;9.40;1.00
29093;DHT22;16167;48.768;14.984;2022-11-14T15:35:25;9.30;1.00
29093;DHT22;16167;48.768;14.984;2022-11-14T15:38:02;9.20;1.00
29093;DHT22;16167;48.768;14.984;2022-11-14T15:41:15;9.10;1.00
29093;DHT22;16167;48.768;14.984;2022-11-14T15:43:48;8.90;11.60
29093;DHT22;16167;48.768;14.984;2022-11-14T15:46:36;8.90;10.90
29093;DHT22;16167;48.768;14.984;2022-11-14T15:49:07;8.70;4.60
29093;DHT22;16167;48.768;14.984;2022-11-14T15:51:40;8.70;1.70
29093;DHT22;16167;48.768;14.984;2022-11-14T15:54:27;8.60;11.90
29093;DHT22;16167;48.768;14.984;2022-11-14T15:56:59;8.60;13.30
29093;DHT22;16167;48.768;14.984;2022-11-14T15:59:29;8.60;12.50
29093;DHT22;16167;48.768;14.984;2022-11-14T16:02:01;8.40;22.60
29093;DHT22;16167;48.768;14.984;2022-11-14T16:04:33;8.40;27.50
29093;DHT22;16167;48.768;14.984;2022-11-14T16:07:02;8.30;35.20
29093;DHT22;16167;48.768;14.984;2022-11-14T16:09:31;8.30;31.80
29093;DHT22;16167;48.768;14.984;2022-11-14T16:12:00;8.30;25.00